Time;durP1;ratioP1;P1;durP2;ratioP2;P2;SDS_P1;SDS_P2;PMS_P1;PMS_P2;Temp;Humidity;BMP_temperature;BMP_pressure;BME280_temperature;BME280_humidity;BME280_pressure;Samples;Min_cycle;Max_cycle;Signal;HPM_P1;HPM_P2
2023/01/04 00:00:22;;;;;;;;;;;8.10;99.90;;;;;;5144380;27;19922;-44
2023/01/04 00:02:47;;;;;;;;;;;8.10;99.90;;;;;;5143996;27;19915;-44
2023/01/04 00:05:13;;;;;;;;;;;8.10;99.90;;;;;;5139665;27;20456;-43
2023/01/04 00:07:38;;;;;;;;;;;8.20;99.90;;;;;;5150310;27;19919;-43
2023/01/04 00:10:04;;;;;;;;;;;8.10;99.90;;;;;;5137775;27;19911;-43
2023/01/04 00:12:29;;;;;;;;;;;8.20;99.90;;;;;;5145837;27;19918;-43
2023/01/04 00:14:55;;;;;;;;;;;8.10;99.90;;;;;;5134811;27;20380;-42
2023/01/04 00:17:20;;;;;;;;;;;8.20;99.90;;;;;;5133978;27;19915;-43
2023/01/04 00:19:45;;;;;;;;;;;8.20;99.90;;;;;;5145960;27;20285;-43
2023/01/04 00:22:11;;;;;;;;;;;8.20;99.90;;;;;;5152016;27;19911;-44
2023/01/04 00:24:36;;;;;;;;;;;8.20;99.90;;;;;;5153887;27;20005;-43
2023/01/04 00:27:02;;;;;;;;;;;8.20;99.90;;;;;;5145717;27;20259;-44
2023/01/04 00:29:27;;;;;;;;;;;8.20;99.90;;;;;;5144204;27;19915;-43
2023/01/04 00:31:53;;;;;;;;;;;8.20;99.90;;;;;;5154063;27;19915;-42
2023/01/04 00:34:18;;;;;;;;;;;8.20;99.90;;;;;;5153594;27;19919;-43
2023/01/04 00:36:44;;;;;;;;;;;8.20;99.90;;;;;;5153804;27;19918;-43
2023/01/04 00:39:13;;;;;;;;;;;8.20;99.90;;;;;;5140842;27;19919;-43
2023/01/04 00:41:40;;;;;;;;;;;8.20;99.90;;;;;;5132660;27;19947;-43
2023/01/04 00:44:06;;;;;;;;;;;8.20;99.90;;;;;;5142086;27;19915;-44
2023/01/04 00:46:32;;;;;;;;;;;8.20;99.90;;;;;;5134331;27;19962;-43
2023/01/04 00:48:58;;;;;;;;;;;8.20;99.90;;;;;;5132928;27;19957;-44
2023/01/04 00:51:23;;;;;;;;;;;8.20;99.90;;;;;;5133613;27;20361;-44
2023/01/04 00:53:49;;;;;;;;;;;8.10;99.90;;;;;;5133754;27;19938;-44
2023/01/04 00:56:14;;;;;;;;;;;8.10;99.90;;;;;;5152491;27;19932;-43
2023/01/04 00:58:40;;;;;;;;;;;8.10;99.90;;;;;;5122033;27;19911;-42
2023/01/04 01:01:05;;;;;;;;;;;8.10;99.90;;;;;;5133057;27;19961;-42
2023/01/04 01:03:31;;;;;;;;;;;8.00;99.90;;;;;;5127649;27;20274;-43
2023/01/04 01:06:03;;;;;;;;;;;8.00;99.90;;;;;;5140678;27;20304;-43
2023/01/04 01:08:29;;;;;;;;;;;8.00;99.90;;;;;;5150875;27;20371;-44
2023/01/04 01:10:55;;;;;;;;;;;8.00;99.90;;;;;;5132886;27;19939;-42
2023/01/04 01:13:21;;;;;;;;;;;8.00;99.90;;;;;;5141252;27;19915;-43
2023/01/04 01:15:47;;;;;;;;;;;8.00;99.90;;;;;;5140122;27;19915;-43
2023/01/04 01:18:12;;;;;;;;;;;8.00;99.90;;;;;;5150105;27;19956;-42
2023/01/04 01:20:42;;;;;;;;;;;8.00;99.90;;;;;;5132968;27;19918;-43
2023/01/04 01:23:08;;;;;;;;;;;8.00;99.90;;;;;;5132619;27;19911;-43
2023/01/04 01:25:34;;;;;;;;;;;8.00;99.90;;;;;;5134453;27;19951;-43
2023/01/04 01:27:59;;;;;;;;;;;8.00;99.90;;;;;;5147155;27;19965;-42
2023/01/04 01:30:25;;;;;;;;;;;8.10;99.90;;;;;;5144765;27;20258;-42
2023/01/04 01:32:50;;;;;;;;;;;8.10;99.90;;;;;;5153846;27;19934;-42
2023/01/04 01:35:16;;;;;;;;;;;8.10;99.90;;;;;;5132649;27;19951;-42
2023/01/04 01:37:41;;;;;;;;;;;8.10;99.90;;;;;;5132238;28;20361;-42
2023/01/04 01:40:07;;;;;;;;;;;8.10;99.90;;;;;;5143525;27;19918;-42
2023/01/04 01:42:32;;;;;;;;;;;8.20;99.90;;;;;;5154276;27;19911;-42
2023/01/04 01:45:00;;;;;;;;;;;8.10;99.90;;;;;;5151179;27;19917;-43
2023/01/04 01:47:27;;;;;;;;;;;8.10;99.90;;;;;;5137009;27;20427;-42
2023/01/04 01:49:53;;;;;;;;;;;8.20;99.90;;;;;;5142565;27;19912;-43
2023/01/04 01:52:25;;;;;;;;;;;8.20;99.90;;;;;;5156619;27;19911;-44
2023/01/04 01:54:53;;;;;;;;;;;8.20;99.90;;;;;;5147419;27;19934;-43
2023/01/04 01:57:22;;;;;;;;;;;8.20;99.90;;;;;;5136958;27;19918;-41
2023/01/04 01:59:49;;;;;;;;;;;8.20;99.90;;;;;;5135950;27;19911;-42
2023/01/04 02:02:14;;;;;;;;;;;8.20;99.90;;;;;;5136419;27;19911;-43
2023/01/04 02:04:41;;;;;;;;;;;8.20;99.90;;;;;;5135894;27;20002;-42
2023/01/04 02:07:08;;;;;;;;;;;8.20;99.90;;;;;;5136682;27;19919;-42
2023/01/04 02:09:34;;;;;;;;;;;8.20;99.90;;;;;;5136103;27;20361;-43
2023/01/04 02:12:00;;;;;;;;;;;8.20;99.90;;;;;;5135937;27;19937;-43
2023/01/04 02:14:28;;;;;;;;;;;8.20;99.90;;;;;;5140161;27;19964;-44
2023/01/04 02:16:57;;;;;;;;;;;8.20;99.90;;;;;;5143540;27;19911;-43
2023/01/04 02:19:45;;;;;;;;;;;8.20;99.90;;;;;;5136669;27;19911;-42
2023/01/04 02:22:24;;;;;;;;;;;8.20;99.90;;;;;;5136293;27;19994;-43
2023/01/04 02:25:07;;;;;;;;;;;8.20;99.90;;;;;;5156451;27;20024;-42
2023/01/04 02:27:51;;;;;;;;;;;8.30;99.90;;;;;;5138307;27;19923;-45
2023/01/04 02:30:31;;;;;;;;;;;8.30;99.90;;;;;;5147697;27;19919;-43
2023/01/04 02:33:00;;;;;;;;;;;8.30;99.90;;;;;;5135754;27;19920;-41
2023/01/04 02:35:32;;;;;;;;;;;8.30;99.90;;;;;;5135852;27;19912;-43
2023/01/04 02:38:00;;;;;;;;;;;8.30;99.90;;;;;;5135924;27;20401;-42
2023/01/04 02:40:44;;;;;;;;;;;8.40;99.90;;;;;;5135076;27;19911;-45
2023/01/04 02:46:03;;;;;;;;;;;8.40;99.90;;;;;;5156377;27;19950;-43
2023/01/04 02:51:27;;;;;;;;;;;8.40;99.90;;;;;;5122420;27;19918;-43
2023/01/04 02:53:53;;;;;;;;;;;8.50;99.90;;;;;;5135025;27;19920;-42
2023/01/04 02:56:34;;;;;;;;;;;8.40;99.90;;;;;;5135701;27;19915;-42
2023/01/04 02:59:11;;;;;;;;;;;8.50;99.90;;;;;;5135533;27;19911;-42
2023/01/04 03:07:33;;;;;;;;;;;8.50;99.90;;;;;;5135329;27;20015;-42
2023/01/04 03:10:03;;;;;;;;;;;8.60;99.90;;;;;;5135046;27;19911;-42
2023/01/04 03:12:32;;;;;;;;;;;8.60;99.90;;;;;;5134922;27;19908;-43
2023/01/04 03:15:19;;;;;;;;;;;8.70;99.90;;;;;;5138504;27;20361;-43
2023/01/04 03:18:11;;;;;;;;;;;8.70;99.90;;;;;;5134927;27;19911;-42
2023/01/04 03:20:36;;;;;;;;;;;8.70;99.90;;;;;;5131602;27;20446;-42
2023/01/04 03:37:17;;;;;;;;;;;8.90;99.90;;;;;;5155364;27;20434;-42
2023/01/04 03:48:32;;;;;;;;;;;9.10;99.90;;;;;;5155292;27;19971;-42
2023/01/04 03:51:15;;;;;;;;;;;9.10;99.90;;;;;;5145085;27;19922;-42
2023/01/04 03:53:49;;;;;;;;;;;9.20;99.90;;;;;;5137394;27;20444;-41
2023/01/04 03:56:16;;;;;;;;;;;9.30;99.90;;;;;;5151480;27;19919;-41
2023/01/04 03:58:41;;;;;;;;;;;9.30;99.90;;;;;;5154086;27;19912;-41
2023/01/04 04:01:07;;;;;;;;;;;9.40;99.90;;;;;;5155041;27;19911;-43
2023/01/04 04:09:01;;;;;;;;;;;9.50;99.90;;;;;;5154765;27;19973;-43
2023/01/04 04:11:29;;;;;;;;;;;9.50;99.90;;;;;;5154406;27;19954;-41
2023/01/04 04:13:55;;;;;;;;;;;9.50;99.90;;;;;;5154573;27;19911;-41
2023/01/04 04:16:20;;;;;;;;;;;9.50;99.90;;;;;;5152353;27;19911;-40
2023/01/04 04:18:47;;;;;;;;;;;9.60;99.90;;;;;;5153395;27;19915;-42
2023/01/04 04:21:12;;;;;;;;;;;9.60;99.90;;;;;;5143608;27;19950;-40
2023/01/04 04:23:38;;;;;;;;;;;9.60;99.90;;;;;;5134722;27;19938;-40
2023/01/04 04:26:03;;;;;;;;;;;9.70;99.90;;;;;;5140619;27;19927;-42
2023/01/04 04:28:29;;;;;;;;;;;9.70;99.90;;;;;;5133521;27;19945;-40
2023/01/04 04:30:54;;;;;;;;;;;9.70;99.90;;;;;;5149853;27;19963;-42
2023/01/04 04:33:20;;;;;;;;;;;9.70;99.90;;;;;;5135174;27;19919;-42
2023/01/04 04:35:49;;;;;;;;;;;9.80;99.90;;;;;;5154317;27;19920;-43
2023/01/04 04:38:14;;;;;;;;;;;9.80;99.90;;;;;;5153924;27;19948;-40
2023/01/04 04:43:23;;;;;;;;;;;9.90;99.90;;;;;;5153139;27;19914;-42
2023/01/04 04:45:49;;;;;;;;;;;9.90;99.90;;;;;;5141032;27;19912;-42
2023/01/04 04:48:14;;;;;;;;;;;9.90;99.90;;;;;;5153878;27;19930;-41
2023/01/04 04:50:40;;;;;;;;;;;9.90;99.90;;;;;;5151559;27;19911;-39
2023/01/04 04:53:05;;;;;;;;;;;10.00;99.90;;;;;;5136357;27;19926;-41
2023/01/04 04:55:31;;;;;;;;;;;10.00;99.90;;;;;;5132580;27;19916;-40
2023/01/04 04:57:56;;;;;;;;;;;10.00;99.90;;;;;;5153458;27;19911;-41
2023/01/04 05:00:22;;;;;;;;;;;10.00;99.90;;;;;;5153244;27;20308;-40
2023/01/04 05:02:47;;;;;;;;;;;10.00;99.90;;;;;;5142464;27;19916;-40
2023/01/04 05:05:13;;;;;;;;;;;10.10;99.90;;;;;;5136478;27;19911;-39
2023/01/04 05:07:38;;;;;;;;;;;10.10;99.90;;;;;;5132474;27;19979;-41
2023/01/04 05:10:04;;;;;;;;;;;10.10;99.90;;;;;;5146726;27;20337;-42
2023/01/04 05:15:13;;;;;;;;;;;10.20;99.90;;;;;;5137056;27;20040;-39
2023/01/04 05:17:38;;;;;;;;;;;10.20;99.90;;;;;;5132076;27;19942;-40
2023/01/04 05:20:04;;;;;;;;;;;10.20;99.90;;;;;;5145971;27;19911;-41
2023/01/04 05:22:29;;;;;;;;;;;10.20;99.90;;;;;;5152592;27;19980;-41
2023/01/04 05:24:55;;;;;;;;;;;10.20;99.90;;;;;;5153400;27;19911;-40
2023/01/04 05:27:20;;;;;;;;;;;10.30;99.90;;;;;;5138810;27;19923;-39
2023/01/04 05:32:30;;;;;;;;;;;10.30;99.90;;;;;;5132553;28;20000;-40
2023/01/04 05:34:55;;;;;;;;;;;10.40;99.90;;;;;;5145074;27;20397;-40
2023/01/04 05:37:21;;;;;;;;;;;10.40;99.90;;;;;;5140667;27;19911;-40
2023/01/04 05:39:46;;;;;;;;;;;10.40;99.90;;;;;;5132283;27;20401;-41
2023/01/04 05:42:24;;;;;;;;;;;10.40;99.90;;;;;;5132710;27;19918;-41
2023/01/04 05:44:49;;;;;;;;;;;10.50;99.90;;;;;;5131902;27;20381;-43
2023/01/04 05:47:15;;;;;;;;;;;10.50;99.90;;;;;;5132640;28;19955;-40
2023/01/04 05:49:40;;;;;;;;;;;10.50;99.90;;;;;;5132023;27;19998;-42
2023/01/04 05:52:06;;;;;;;;;;;10.50;99.90;;;;;;5142236;27;19911;-40
2023/01/04 05:54:31;;;;;;;;;;;10.50;99.90;;;;;;5152588;27;19911;-40
2023/01/04 05:56:57;;;;;;;;;;;10.60;99.90;;;;;;5152611;27;19983;-41
2023/01/04 05:59:22;;;;;;;;;;;10.60;99.90;;;;;;5133658;27;19916;-40
2023/01/04 06:01:47;;;;;;;;;;;10.60;99.90;;;;;;5132269;27;20384;-43
2023/01/04 06:04:13;;;;;;;;;;;10.60;99.90;;;;;;5132032;27;19918;-39
2023/01/04 06:06:38;;;;;;;;;;;10.60;99.90;;;;;;5132036;28;19919;-41
2023/01/04 06:09:04;;;;;;;;;;;10.70;99.90;;;;;;5138989;27;19911;-39
2023/01/04 06:11:30;;;;;;;;;;;10.70;99.90;;;;;;5152495;27;20345;-42
2023/01/04 06:13:55;;;;;;;;;;;10.70;99.90;;;;;;5147886;27;19918;-39
2023/01/04 06:16:20;;;;;;;;;;;10.70;99.90;;;;;;5124019;28;19919;-40
2023/01/04 06:18:46;;;;;;;;;;;10.70;99.90;;;;;;5129513;27;19915;-40
2023/01/04 06:21:11;;;;;;;;;;;10.70;99.90;;;;;;5138445;27;20330;-41
2023/01/04 06:23:37;;;;;;;;;;;10.70;99.90;;;;;;5150958;27;19915;-39
2023/01/04 06:26:02;;;;;;;;;;;10.80;99.90;;;;;;5145904;27;19917;-38
2023/01/04 06:28:28;;;;;;;;;;;10.80;99.90;;;;;;5142835;27;19950;-41
2023/01/04 06:30:53;;;;;;;;;;;10.80;99.90;;;;;;5143131;27;19918;-39
2023/01/04 06:33:19;;;;;;;;;;;10.80;99.90;;;;;;5131949;27;19907;-41
2023/01/04 06:35:51;;;;;;;;;;;10.80;99.90;;;;;;5115300;28;20147;-40
2023/01/04 06:38:17;;;;;;;;;;;10.80;99.90;;;;;;5115800;27;19907;-42
2023/01/04 06:40:42;;;;;;;;;;;10.90;99.90;;;;;;5155887;27;19907;-42
2023/01/04 06:43:08;;;;;;;;;;;10.90;99.90;;;;;;5156168;27;20314;-42
2023/01/04 06:45:33;;;;;;;;;;;10.90;99.90;;;;;;5156159;27;19996;-42
2023/01/04 06:47:59;;;;;;;;;;;10.90;99.90;;;;;;5154961;27;19919;-41
2023/01/04 06:50:24;;;;;;;;;;;10.90;99.90;;;;;;5153599;27;20365;-42
2023/01/04 06:52:50;;;;;;;;;;;10.90;99.90;;;;;;5135429;27;19919;-38
2023/01/04 06:55:15;;;;;;;;;;;10.90;99.90;;;;;;5136791;27;19921;-39
2023/01/04 06:57:41;;;;;;;;;;;10.80;99.90;;;;;;5138316;27;19938;-41
2023/01/04 07:00:07;;;;;;;;;;;10.90;99.90;;;;;;5155505;27;19918;-40
2023/01/04 07:02:33;;;;;;;;;;;10.90;99.90;;;;;;5145547;27;19912;-42
2023/01/04 07:04:58;;;;;;;;;;;10.90;99.90;;;;;;5135215;27;20414;-39
2023/01/04 07:07:24;;;;;;;;;;;10.90;99.90;;;;;;5135080;27;19915;-42
2023/01/04 07:09:49;;;;;;;;;;;10.90;99.90;;;;;;5135278;27;19911;-40
2023/01/04 07:12:15;;;;;;;;;;;10.90;99.90;;;;;;5133569;27;20301;-41
2023/01/04 07:14:40;;;;;;;;;;;10.90;99.90;;;;;;5138868;27;20362;-41
2023/01/04 07:17:06;;;;;;;;;;;10.90;99.90;;;;;;5134994;27;19918;-39
2023/01/04 07:19:31;;;;;;;;;;;11.00;99.90;;;;;;5135563;27;19915;-41
2023/01/04 07:21:57;;;;;;;;;;;10.90;99.90;;;;;;5134823;27;20407;-41
2023/01/04 07:24:23;;;;;;;;;;;10.90;99.90;;;;;;5135159;27;19964;-39
2023/01/04 07:26:49;;;;;;;;;;;10.90;99.90;;;;;;5147279;27;19923;-40
2023/01/04 07:29:15;;;;;;;;;;;10.90;99.90;;;;;;5117818;27;19918;-39
2023/01/04 07:31:45;;;;;;;;;;;10.90;99.90;;;;;;5122744;27;19908;-39
2023/01/04 07:34:11;;;;;;;;;;;11.00;99.90;;;;;;5135045;27;19915;-41
2023/01/04 07:36:36;;;;;;;;;;;11.00;99.90;;;;;;5134034;27;19907;-41
2023/01/04 07:39:02;;;;;;;;;;;11.00;99.90;;;;;;5134144;27;19908;-39
2023/01/04 07:41:27;;;;;;;;;;;11.00;99.90;;;;;;5134077;27;19919;-42
2023/01/04 07:43:52;;;;;;;;;;;11.00;99.90;;;;;;5134273;27;19907;-39
2023/01/04 07:46:18;;;;;;;;;;;11.00;99.90;;;;;;5134237;27;19922;-41
2023/01/04 07:48:44;;;;;;;;;;;11.00;99.90;;;;;;5134458;27;19939;-40
2023/01/04 07:51:09;;;;;;;;;;;11.00;99.90;;;;;;5134210;27;19914;-40
2023/01/04 07:53:34;;;;;;;;;;;11.10;99.90;;;;;;5133739;27;20054;-39
2023/01/04 07:56:00;;;;;;;;;;;11.00;99.90;;;;;;5125336;27;19948;-39
2023/01/04 07:58:26;;;;;;;;;;;11.00;99.90;;;;;;5116933;27;20323;-40
2023/01/04 08:00:51;;;;;;;;;;;11.00;99.90;;;;;;5113839;28;19934;-40
2023/01/04 08:03:17;;;;;;;;;;;11.10;99.90;;;;;;5113292;28;19930;-40
2023/01/04 08:05:42;;;;;;;;;;;11.10;99.90;;;;;;5113654;28;20308;-39
2023/01/04 08:08:08;;;;;;;;;;;11.10;99.90;;;;;;5113376;28;19919;-38
2023/01/04 08:10:33;;;;;;;;;;;11.10;99.90;;;;;;5113039;28;19908;-39
2023/01/04 08:12:59;;;;;;;;;;;11.10;99.90;;;;;;5113748;28;19908;-39
2023/01/04 08:15:27;;;;;;;;;;;11.10;99.90;;;;;;5113495;28;20346;-42
2023/01/04 08:17:54;;;;;;;;;;;11.20;99.90;;;;;;5113027;28;19943;-40
2023/01/04 08:20:20;;;;;;;;;;;11.20;99.90;;;;;;5121587;27;20421;-41
2023/01/04 08:22:45;;;;;;;;;;;11.20;99.90;;;;;;5133549;27;20007;-39
2023/01/04 08:25:11;;;;;;;;;;;11.20;99.90;;;;;;5133409;27;20246;-41
2023/01/04 08:27:36;;;;;;;;;;;11.20;99.90;;;;;;5133718;27;19919;-41
2023/01/04 08:30:02;;;;;;;;;;;11.20;99.90;;;;;;5133444;27;20278;-38
2023/01/04 08:32:28;;;;;;;;;;;11.30;99.90;;;;;;5133065;27;19972;-42
2023/01/04 08:34:54;;;;;;;;;;;11.30;99.90;;;;;;5133776;27;20409;-39
2023/01/04 08:37:19;;;;;;;;;;;11.30;99.90;;;;;;5133743;27;20338;-42
2023/01/04 08:39:45;;;;;;;;;;;11.30;99.90;;;;;;5133921;27;19958;-40
2023/01/04 08:42:10;;;;;;;;;;;11.30;99.90;;;;;;5145502;27;20361;-41
2023/01/04 08:44:36;;;;;;;;;;;11.30;99.90;;;;;;5133400;27;19911;-39
2023/01/04 08:47:01;;;;;;;;;;;11.30;99.90;;;;;;5133080;27;19923;-43
2023/01/04 08:49:27;;;;;;;;;;;11.40;99.90;;;;;;5132913;27;20348;-40
2023/01/04 08:51:52;;;;;;;;;;;11.40;99.90;;;;;;5144689;27;19911;-42
2023/01/04 08:54:18;;;;;;;;;;;11.30;99.90;;;;;;5153391;27;19919;-40
2023/01/04 08:56:43;;;;;;;;;;;11.30;99.90;;;;;;5153799;27;19907;-39
2023/01/04 08:59:09;;;;;;;;;;;11.40;99.90;;;;;;5154238;27;19907;-40
2023/01/04 09:01:35;;;;;;;;;;;11.40;99.90;;;;;;5141105;27;20001;-41
2023/01/04 09:04:00;;;;;;;;;;;11.40;99.90;;;;;;5133097;27;19947;-41
2023/01/04 09:06:26;;;;;;;;;;;11.40;99.90;;;;;;5133004;27;19946;-41
2023/01/04 09:08:52;;;;;;;;;;;11.40;99.90;;;;;;5134112;27;20300;-40
2023/01/04 09:11:18;;;;;;;;;;;11.50;99.90;;;;;;5145509;27;19915;-41
2023/01/04 09:13:44;;;;;;;;;;;11.40;99.90;;;;;;5132499;27;19998;-40
2023/01/04 09:16:11;;;;;;;;;;;11.50;99.90;;;;;;5133085;27;20022;-40
2023/01/04 09:18:37;;;;;;;;;;;11.50;99.90;;;;;;5132788;27;19914;-43
2023/01/04 09:21:06;;;;;;;;;;;11.50;99.90;;;;;;5132685;27;19933;-41
2023/01/04 09:23:32;;;;;;;;;;;11.50;99.90;;;;;;5126169;27;19918;-43
2023/01/04 09:25:58;;;;;;;;;;;11.50;99.90;;;;;;5112367;28;19912;-40
2023/01/04 09:28:24;;;;;;;;;;;11.50;99.90;;;;;;5120435;28;20381;-41
2023/01/04 09:30:49;;;;;;;;;;;11.50;99.90;;;;;;5124581;28;19912;-43
2023/01/04 09:33:15;;;;;;;;;;;11.50;99.90;;;;;;5126402;28;19912;-40
2023/01/04 09:35:40;;;;;;;;;;;11.50;99.90;;;;;;5132127;28;19908;-43
2023/01/04 09:38:05;;;;;;;;;;;11.50;99.90;;;;;;5124526;28;20399;-45
2023/01/04 09:40:50;;;;;;;;;;;11.50;99.90;;;;;;5123313;28;19912;-44
2023/01/04 09:43:18;;;;;;;;;;;11.50;99.90;;;;;;5121066;28;20323;-40
2023/01/04 09:45:44;;;;;;;;;;;11.50;99.90;;;;;;5118747;28;19937;-41
2023/01/04 09:48:12;;;;;;;;;;;11.50;99.90;;;;;;5112221;28;19916;-42
2023/01/04 09:50:49;;;;;;;;;;;11.50;99.90;;;;;;5110568;28;19920;-42
2023/01/04 09:53:23;;;;;;;;;;;11.50;99.90;;;;;;5110599;27;19919;-42
2023/01/04 09:55:49;;;;;;;;;;;11.50;99.90;;;;;;5094931;28;20003;-43
2023/01/04 09:58:35;;;;;;;;;;;11.50;99.90;;;;;;5091816;28;19946;-41
2023/01/04 10:01:19;;;;;;;;;;;11.50;99.90;;;;;;5100355;28;19919;-42
2023/01/04 10:03:49;;;;;;;;;;;11.50;99.90;;;;;;5113625;28;19907;-42
2023/01/04 10:06:14;;;;;;;;;;;11.50;99.90;;;;;;5115719;28;19919;-42
2023/01/04 10:08:42;;;;;;;;;;;11.50;99.90;;;;;;5115670;28;19907;-44
2023/01/04 10:11:14;;;;;;;;;;;11.50;99.90;;;;;;5115521;28;19912;-43
2023/01/04 10:13:56;;;;;;;;;;;11.50;99.90;;;;;;5115661;28;19916;-41
2023/01/04 10:16:40;;;;;;;;;;;11.50;99.90;;;;;;5116094;28;20329;-41
2023/01/04 10:19:24;;;;;;;;;;;11.60;99.90;;;;;;5115335;28;19991;-45
2023/01/04 10:21:55;;;;;;;;;;;11.60;99.90;;;;;;5115702;28;19907;-43
2023/01/04 10:24:29;;;;;;;;;;;11.60;99.90;;;;;;5115260;28;19908;-40
2023/01/04 10:26:58;;;;;;;;;;;11.60;99.90;;;;;;5113701;28;20338;-41
2023/01/04 10:29:33;;;;;;;;;;;11.60;99.90;;;;;;5103773;27;19912;-45
2023/01/04 10:32:01;;;;;;;;;;;11.60;99.90;;;;;;5103263;28;19920;-42
2023/01/04 10:34:29;;;;;;;;;;;11.60;99.90;;;;;;5109856;28;19912;-43
2023/01/04 10:36:58;;;;;;;;;;;11.60;99.90;;;;;;5104833;27;20350;-41
2023/01/04 10:39:26;;;;;;;;;;;11.70;99.90;;;;;;5103852;27;19923;-45
2023/01/04 10:41:56;;;;;;;;;;;11.70;99.90;;;;;;5103346;28;19965;-41
2023/01/04 10:44:28;;;;;;;;;;;11.70;99.90;;;;;;5101218;28;19912;-42
2023/01/04 10:47:01;;;;;;;;;;;11.70;99.90;;;;;;5103634;27;19920;-42
2023/01/04 10:49:32;;;;;;;;;;;11.70;99.90;;;;;;5096413;28;20378;-43
2023/01/04 10:52:09;;;;;;;;;;;11.80;99.90;;;;;;5101074;28;20098;-41
2023/01/04 10:54:41;;;;;;;;;;;11.80;99.90;;;;;;5127488;27;20392;-40
2023/01/04 10:57:10;;;;;;;;;;;11.90;99.90;;;;;;5135568;27;20362;-45
2023/01/04 10:59:35;;;;;;;;;;;11.90;99.90;;;;;;5134967;27;19911;-40
2023/01/04 11:02:10;;;;;;;;;;;11.90;99.90;;;;;;5135515;27;20418;-43
2023/01/04 11:04:41;;;;;;;;;;;11.90;99.90;;;;;;5133523;27;19908;-41
2023/01/04 11:07:20;;;;;;;;;;;11.90;99.90;;;;;;5129926;27;20293;-42
2023/01/04 11:09:52;;;;;;;;;;;11.90;99.90;;;;;;5115974;27;19911;-41
2023/01/04 11:12:20;;;;;;;;;;;12.00;99.90;;;;;;5130144;27;19964;-41
2023/01/04 11:14:45;;;;;;;;;;;12.00;99.90;;;;;;5141379;27;20324;-42
2023/01/04 11:17:11;;;;;;;;;;;12.00;99.90;;;;;;5114738;28;19908;-41
2023/01/04 11:19:37;;;;;;;;;;;12.00;99.90;;;;;;5132636;27;19960;-43
2023/01/04 11:22:05;;;;;;;;;;;12.00;99.90;;;;;;5121426;27;20279;-43
2023/01/04 11:24:31;;;;;;;;;;;12.00;99.90;;;;;;5114359;28;19951;-42
2023/01/04 11:26:58;;;;;;;;;;;12.00;99.90;;;;;;5114578;28;20006;-41
2023/01/04 11:29:28;;;;;;;;;;;12.10;99.90;;;;;;5114120;28;19908;-41
2023/01/04 11:32:05;;;;;;;;;;;12.00;99.90;;;;;;5133668;27;19951;-42
2023/01/04 11:34:51;;;;;;;;;;;12.10;99.90;;;;;;5133963;27;19918;-41
2023/01/04 11:37:36;;;;;;;;;;;12.10;99.90;;;;;;5134831;27;19911;-44
2023/01/04 11:40:11;;;;;;;;;;;12.10;99.90;;;;;;5120065;27;19914;-42
2023/01/04 11:42:36;;;;;;;;;;;12.10;99.90;;;;;;5134442;27;20354;-40
2023/01/04 11:45:02;;;;;;;;;;;12.20;99.90;;;;;;5115938;27;19964;-41
2023/01/04 11:47:28;;;;;;;;;;;12.20;99.90;;;;;;5114071;27;19933;-42
2023/01/04 11:49:54;;;;;;;;;;;12.20;99.90;;;;;;5140060;27;19911;-42
2023/01/04 11:52:30;;;;;;;;;;;12.20;99.90;;;;;;5151631;27;19915;-41
2023/01/04 11:54:56;;;;;;;;;;;12.20;99.90;;;;;;5156020;27;20315;-42
2023/01/04 11:57:21;;;;;;;;;;;12.20;99.90;;;;;;5155467;27;19907;-41
2023/01/04 12:00:06;;;;;;;;;;;12.20;99.90;;;;;;5151750;27;19959;-41
2023/01/04 12:02:31;;;;;;;;;;;12.20;99.90;;;;;;5134688;27;19964;-42
2023/01/04 12:04:57;;;;;;;;;;;12.20;99.90;;;;;;5135103;27;20319;-42
2023/01/04 12:07:27;;;;;;;;;;;12.30;99.90;;;;;;5134833;27;20307;-43
2023/01/04 12:09:53;;;;;;;;;;;12.20;99.90;;;;;;5145412;27;19918;-42
2023/01/04 12:12:19;;;;;;;;;;;12.30;99.90;;;;;;5155412;27;19911;-41
2023/01/04 12:14:46;;;;;;;;;;;12.30;99.90;;;;;;5155845;27;20277;-42
2023/01/04 12:17:15;;;;;;;;;;;12.30;99.90;;;;;;5155139;27;19914;-42
2023/01/04 12:19:41;;;;;;;;;;;12.30;99.90;;;;;;5153434;27;19919;-42
2023/01/04 12:22:17;;;;;;;;;;;12.30;99.90;;;;;;5155505;27;19907;-44
2023/01/04 12:24:44;;;;;;;;;;;12.30;99.90;;;;;;5154960;27;20350;-43
2023/01/04 12:27:12;;;;;;;;;;;12.30;99.90;;;;;;5152718;27;19911;-44
2023/01/04 12:29:58;;;;;;;;;;;12.30;99.90;;;;;;5134744;27;20350;-43
2023/01/04 12:32:26;;;;;;;;;;;12.30;99.90;;;;;;5133591;27;19907;-44
2023/01/04 12:34:52;;;;;;;;;;;12.40;99.90;;;;;;5134453;27;19908;-45
2023/01/04 12:37:36;;;;;;;;;;;12.30;99.90;;;;;;5135657;27;19907;-44
2023/01/04 12:40:22;;;;;;;;;;;12.40;99.90;;;;;;5134506;27;19911;-45
2023/01/04 12:43:24;;;;;;;;;;;12.40;99.90;;;;;;5101972;27;19968;-43
2023/01/04 12:49:02;;;;;;;;;;;12.40;99.90;;;;;;5050373;28;19909;-43
2023/01/04 12:49:04;;;;;;;;;;;12.40;99.90;;;;;;5148090;27;19919;-42
2023/01/04 12:51:29;;;;;;;;;;;12.40;99.90;;;;;;5155017;27;19943;-43
2023/01/04 12:53:56;;;;;;;;;;;12.40;99.90;;;;;;5129851;27;19955;-42
2023/01/04 12:56:22;;;;;;;;;;;12.40;99.90;;;;;;5144879;27;19915;-40
2023/01/04 12:59:06;;;;;;;;;;;12.40;99.90;;;;;;5135574;27;19911;-41
2023/01/04 13:01:31;;;;;;;;;;;12.40;99.90;;;;;;5121559;27;20015;-40
2023/01/04 13:03:58;;;;;;;;;;;12.40;99.90;;;;;;5124639;27;20006;-43
2023/01/04 13:06:25;;;;;;;;;;;12.40;99.90;;;;;;5123195;27;20149;-42
2023/01/04 13:08:51;;;;;;;;;;;12.40;99.90;;;;;;5116205;27;19920;-40
2023/01/04 13:11:31;;;;;;;;;;;12.40;99.90;;;;;;5126588;27;19911;-41
2023/01/04 13:14:01;;;;;;;;;;;12.30;99.90;;;;;;5121794;27;19911;-44
2023/01/04 13:16:32;;;;;;;;;;;12.30;99.90;;;;;;5124561;27;20266;-40
2023/01/04 13:18:59;;;;;;;;;;;12.30;99.90;;;;;;5115728;27;19957;-39
2023/01/04 13:21:28;;;;;;;;;;;12.30;99.90;;;;;;5112627;28;19911;-41
2023/01/04 13:23:58;;;;;;;;;;;12.40;99.90;;;;;;5115616;28;19907;-41
2023/01/04 13:26:35;;;;;;;;;;;12.30;99.90;;;;;;5124253;27;19915;-40
2023/01/04 13:29:08;;;;;;;;;;;12.30;99.90;;;;;;5112437;28;19915;-40
2023/01/04 13:31:43;;;;;;;;;;;12.30;99.90;;;;;;5132820;27;19935;-41
2023/01/04 13:34:17;;;;;;;;;;;12.30;99.90;;;;;;5115148;28;19916;-42
2023/01/04 13:36:43;;;;;;;;;;;12.30;99.90;;;;;;5112935;28;19912;-40
2023/01/04 13:39:10;;;;;;;;;;;12.30;99.90;;;;;;5134437;27;19911;-43
2023/01/04 13:41:35;;;;;;;;;;;12.20;99.90;;;;;;5143842;27;20393;-41
2023/01/04 13:44:12;;;;;;;;;;;12.30;99.90;;;;;;5137600;27;19907;-43
2023/01/04 13:46:40;;;;;;;;;;;12.20;99.90;;;;;;5119735;27;19968;-41
2023/01/04 13:49:08;;;;;;;;;;;12.20;99.90;;;;;;5116717;27;19911;-42
2023/01/04 13:51:35;;;;;;;;;;;12.20;99.90;;;;;;5122970;27;19912;-41
2023/01/04 13:54:02;;;;;;;;;;;12.20;99.90;;;;;;5116925;27;20398;-43
2023/01/04 13:56:29;;;;;;;;;;;12.20;99.90;;;;;;5133345;27;20365;-40
2023/01/04 13:58:54;;;;;;;;;;;12.20;99.90;;;;;;5132289;27;19911;-43
2023/01/04 14:01:27;;;;;;;;;;;12.20;99.90;;;;;;5118775;27;19922;-41
2023/01/04 14:04:04;;;;;;;;;;;12.10;99.90;;;;;;5126170;27;19911;-43
2023/01/04 14:06:38;;;;;;;;;;;12.10;99.90;;;;;;5137102;27;19969;-43
2023/01/04 14:09:10;;;;;;;;;;;12.20;99.90;;;;;;5126312;27;19923;-44
2023/01/04 14:14:32;;;;;;;;;;;12.10;99.90;;;;;;5124952;27;19934;-43
2023/01/04 14:17:23;;;;;;;;;;;12.10;99.90;;;;;;5116208;27;20397;-44
2023/01/04 14:19:53;;;;;;;;;;;12.10;99.90;;;;;;5100483;27;19911;-43
2023/01/04 14:22:22;;;;;;;;;;;12.00;99.90;;;;;;5137102;27;20262;-43
2023/01/04 14:24:49;;;;;;;;;;;12.00;99.90;;;;;;5136588;27;19916;-41
2023/01/04 14:27:33;;;;;;;;;;;11.90;99.90;;;;;;5131845;27;19920;-44
2023/01/04 14:29:59;;;;;;;;;;;11.90;99.90;;;;;;5124132;27;20342;-40
2023/01/04 14:32:25;;;;;;;;;;;11.80;99.90;;;;;;5134896;27;20417;-42
2023/01/04 14:34:51;;;;;;;;;;;11.80;99.90;;;;;;5136795;27;19989;-41
2023/01/04 14:37:16;;;;;;;;;;;11.90;99.90;;;;;;5136363;27;19911;-41
2023/01/04 14:39:42;;;;;;;;;;;11.90;99.90;;;;;;5136661;27;19907;-41
2023/01/04 14:42:34;;;;;;;;;;;11.80;99.90;;;;;;5137125;27;20256;-42
2023/01/04 14:44:59;;;;;;;;;;;11.90;99.90;;;;;;5135809;27;19915;-43
2023/01/04 14:47:25;;;;;;;;;;;11.90;99.90;;;;;;5135795;27;19943;-44
2023/01/04 14:49:50;;;;;;;;;;;11.90;99.90;;;;;;5142138;27;19911;-43
2023/01/04 14:52:18;;;;;;;;;;;11.90;99.90;;;;;;5142819;27;20381;-42
2023/01/04 14:54:44;;;;;;;;;;;11.90;99.90;;;;;;5118315;27;19974;-43
2023/01/04 14:57:10;;;;;;;;;;;11.90;99.90;;;;;;5116803;27;20366;-41
2023/01/04 14:59:35;;;;;;;;;;;12.00;99.90;;;;;;5123961;27;20580;-42
2023/01/04 15:02:01;;;;;;;;;;;12.00;99.90;;;;;;5121604;27;20049;-42
2023/01/04 15:04:26;;;;;;;;;;;12.00;99.90;;;;;;5123433;27;20286;-42
2023/01/04 15:06:59;;;;;;;;;;;12.10;99.90;;;;;;5114501;28;19965;-42
2023/01/04 15:09:24;;;;;;;;;;;12.10;99.90;;;;;;5114724;28;20370;-44
2023/01/04 15:11:50;;;;;;;;;;;12.10;99.90;;;;;;5114543;27;20018;-43
2023/01/04 15:14:15;;;;;;;;;;;12.10;99.90;;;;;;5114133;28;19999;-46
2023/01/04 15:16:41;;;;;;;;;;;12.10;99.90;;;;;;5132703;27;19994;-43
2023/01/04 15:19:07;;;;;;;;;;;12.10;99.90;;;;;;5135015;27;19915;-43